MDT,Max TemperatureF,Mean TemperatureF,Min TemperatureF,Max Dew PointF,MeanDew PointF,Min DewpointF,Max Humidity, Mean Humidity, Min Humidity, Max Sea Level PressureIn, Mean Sea Level PressureIn, Min Sea Level PressureIn, Max VisibilityMiles, Mean VisibilityMiles, Min VisibilityMiles, Max Wind SpeedMPH, Mean Wind SpeedMPH, Max Gust SpeedMPH,PrecipitationIn, CloudCover, Events, WindDirDegrees
2012-10-1,68,52,37,43,35,25,100,69,22,30.34,30.21,29.82,10,7,0,20,6,,0.00,2,Fog,251
2012-10-2,75,60,48,36,32,27,56,35,21,29.81,29.75,29.69,10,10,10,17,9,26,0.00,0,,302
2012-10-3,50,42,33,36,32,30,93,83,54,30.45,30.11,29.81,10,6,1,20,12,25,0.36,7,Rain-Snow,345
2012-10-4,43,36,28,31,29,22,89,77,51,30.47,30.41,30.37,10,10,9,14,10,22,0.00,7,Snow,333
2012-10-5,42,33,23,28,23,17,89,71,43,30.49,30.44,30.38,10,10,9,17,4,22,0.00,5,Snow,322
2012-10-6,44,32,19,23,18,14,82,63,32,30.50,30.39,30.16,10,10,9,13,4,18,0.00,0,,251
2012-10-7,57,42,28,33,29,20,75,54,36,30.12,29.96,29.74,10,10,10,18,12,28,0.00,2,,267
2012-10-8,53,46,39,39,31,21,76,54,39,29.98,29.83,29.72,10,10,10,22,15,33,0.00,7,,299
2012-10-9,46,40,33,29,23,18,76,57,33,30.15,30.09,29.99,10,10,9,22,14,32,0.00,6,Snow,300
2012-10-10,64,47,30,32,29,26,82,52,25,30.09,29.96,29.83,10,10,10,22,11,30,0.00,2,,278
2012-10-11,37,34,32,30,28,26,87,76,65,30.39,30.25,30.11,10,9,1,21,8,25,0.03,8,Snow,58
2012-10-12,72,51,30,34,31,26,85,57,23,30.16,29.88,29.70,10,10,10,23,14,,0.00,0,,179
2012-10-13,66,50,37,35,33,31,79,52,28,29.97,29.82,29.69,10,10,10,17,6,25,0.00,1,,294
2012-10-14,69,54,43,38,34,29,76,50,26,30.06,29.98,29.85,10,10,10,20,8,31,0.00,2,,269
2012-10-15,71,60,48,48,36,30,86,47,24,29.82,29.75,29.69,10,10,10,18,11,28,0.03,4,Rain,261
2012-10-16,61,54,46,48,43,29,89,74,51,29.71,29.48,29.31,10,10,8,25,10,37,0.09,4,Rain,245
2012-10-17,50,42,35,36,26,14,93,57,26,29.83,29.63,29.44,10,9,5,47,35,60,0.17,5,Rain,297
2012-10-18,48,37,28,28,26,21,75,61,44,30.13,30.03,29.84,10,10,10,34,27,51,0.00,5,,305
2012-10-19,62,42,21,31,25,17,82,57,25,30.08,29.83,29.62,10,10,10,9,3,,0.00,0,,258
2012-10-20,66,50,36,47,35,27,83,60,28,29.73,29.61,29.52,10,10,9,16,6,23,0.08,4,Rain,291
2012-10-21,46,42,39,40,32,27,82,66,46,30.03,29.94,29.77,10,10,10,21,9,28,0.03,8,Rain,59
2012-10-22,43,39,35,37,33,30,89,83,68,30.02,29.87,29.66,10,10,10,25,19,33,0.09,7,Rain,114
2012-10-23,42,36,30,38,35,25,93,85,73,29.96,29.76,29.61,10,8,2,16,7,26,0.10,5,Rain,296
2012-10-24,37,31,25,25,22,19,86,74,52,30.22,30.09,29.97,10,10,9,17,11,24,0.00,4,Snow,298
2012-10-25,28,26,24,21,18,14,85,69,58,30.46,30.33,30.14,10,9,9,23,17,30,0.00,8,Snow,302
2012-10-26,33,26,19,16,14,10,81,60,46,30.50,30.40,30.25,10,9,9,20,14,29,0.00,5,Snow,286
2012-10-27,39,28,19,23,19,13,84,73,52,30.25,30.21,30.13,10,10,5,16,6,,0.00,5,Snow,93
2012-10-28,39,32,24,32,26,21,88,80,73,30.19,30.05,29.95,10,10,8,22,13,25,0.00,8,,126
2012-10-29,62,46,30,44,36,27,88,74,37,30.02,29.98,29.92,10,10,10,8,3,,0.01,4,Rain,118
2012-10-30,61,46,33,43,36,30,93,71,42,30.06,30.01,29.92,10,8,2,13,5,,0.01,1,Rain,220
2012-10-31,53,43,33,38,34,30,93,77,57,30.15,30.06,29.95,10,8,0,16,6,,0.00,4,Fog,58